Sandy Point, VA (22577)

12:19 PM EDT on June 03, 2015 (GMT -0400)
Northumberland Shores | | Change Station
CLOSE
Current Station
Personal Weather Station
Location: Lottsburg, VA
Elevation: 0 ft
Nearby Weather Stations

Elev 0 ft 38.02 °N, 76.51 °W | Updated 4 minutes ago

Fog
Fog
61.4 °F
Feels Like 61.4 °F
N
13.0
Wind Variable Wind from NNE
Gusts 16.0 mph

Today
High -- | Low -- °F
--% Chance of Precip.
Yesterday
High -- | Low -- °F
Precip. -- in
5:44 AM 8:24 PM
Full, 99% visible
Pressure 30.16 in
Visibility 3.0 miles
Clouds Overcast 1200 ft
Dew Point 59 °F
Humidity 92%
Rainfall in
Snow Depth Not available.
UV 3 out of 12
Pollen .70 out of 12
Air Quality Not available.
Flu Activity Sporadic
SPECI KNUI 031603Z AUTO 04008KT 3SM BR OVC012 16/14 A3016 RMK AO2 T01560139

More Conditions Fewer Conditions

Pressure 30.16 in
Visibility 3.0 miles
Clouds Overcast 1200 ft
Dew Point 59 °F
Humidity 92%
Rainfall in
Snow Depth Not available.
UV 3 out of 12
Pollen .70 out of 12
Air Quality Not available.
Flu Activity Sporadic
SPECI KNUI 031603Z AUTO 04008KT 3SM BR OVC012 16/14 A3016 RMK AO2 T01560139

More Conditions Fewer Conditions

10-Day Weather Forecast

×

Almanac

Astronomy

Jun. 03, 2015 Rise Set
Actual Time
Civil Twilight
Nautical Twilight
Astronomical Twilight
Moon
Length of Visible Light
Length of Day
Tomorrow will be .
, % of the Moon is Illuminated

Today's Extremes

State Highs State Lows

Community

WunderPhotos

Upload Photos

1,826,246 photos uploaded!

WunderBlogs® & News

Nearby

Air Quality

  Air Quality AQ Index Pollutant
Not available.

Snow Depth

Station Depth Elevation

Earthquake Activity

City Distance Mag. Time & Date
Minimum magnitude displayed is 2.5.

Coastal Water Temperatures

Place Temperature

Stations

Nearby Weather Stations

Station Location Temp. Windchill Dew Point Humidity Wind Precip. Elev Updated Type